Time;durP1;ratioP1;P1;durP2;ratioP2;P2;SDS_P1;SDS_P2;PMS_P1;PMS_P2;Temp;Humidity;BMP_temperature;BMP_pressure;BME280_temperature;BME280_humidity;BME280_pressure;Samples;Min_cycle;Max_cycle;Signal;HPM_P1;HPM_P2
2022/05/12 00:00:10;;;;;;;3.08;2.38;;;14.90;95.60;;;;;;5093802;28;20028;-82
2022/05/12 00:02:36;;;;;;;3.47;2.40;;;14.80;95.80;;;;;;5093420;28;20012;-82
2022/05/12 00:05:04;;;;;;;3.75;2.50;;;14.80;96.20;;;;;;5075554;28;20537;-82
2022/05/12 00:07:30;;;;;;;4.45;2.75;;;14.70;96.50;;;;;;5093546;28;20016;-82
2022/05/12 00:09:56;;;;;;;3.50;2.40;;;14.70;96.80;;;;;;5075373;28;20032;-82
2022/05/12 00:12:23;;;;;;;4.20;2.63;;;14.60;96.90;;;;;;5075195;28;20055;-82
2022/05/12 00:14:49;;;;;;;3.35;2.60;;;14.60;97.10;;;;;;5073741;28;20516;-82
2022/05/12 00:17:14;;;;;;;4.10;2.35;;;14.60;97.70;;;;;;5093246;28;20047;-82
2022/05/12 00:19:40;;;;;;;3.90;2.60;;;14.40;98.20;;;;;;5082107;28;20020;-82
2022/05/12 00:22:06;;;;;;;4.22;2.67;;;14.20;99.00;;;;;;5081645;28;20521;-82
2022/05/12 00:24:31;;;;;;;3.95;2.97;;;14.10;99.20;;;;;;5100909;28;20023;-82
2022/05/12 00:26:57;;;;;;;3.75;2.53;;;14.10;99.30;;;;;;5082441;28;20049;-82
2022/05/12 00:29:23;;;;;;;4.40;2.40;;;14.10;99.10;;;;;;5082073;28;20035;-82
2022/05/12 00:31:49;;;;;;;4.53;2.80;;;14.10;99.00;;;;;;5090582;28;20101;-82
2022/05/12 00:34:17;;;;;;;4.00;2.65;;;14.10;99.30;;;;;;5099782;28;20035;-82
2022/05/12 00:36:43;;;;;;;6.47;3.55;;;14.00;99.50;;;;;;5087809;28;20024;-82
2022/05/12 00:39:09;;;;;;;4.82;3.17;;;14.00;99.90;;;;;;5087973;28;20047;-82
2022/05/12 00:41:36;;;;;;;4.88;3.10;;;13.90;99.90;;;;;;5081609;28;20201;-82
2022/05/12 00:44:05;;;;;;;3.65;2.67;;;13.80;99.90;;;;;;5079022;28;20054;-82
2022/05/12 00:46:38;;;;;;;5.63;3.13;;;13.70;99.90;;;;;;5081921;28;20040;-82
2022/05/12 00:49:13;;;;;;;4.18;2.53;;;13.70;99.90;;;;;;5100088;28;20050;-82
2022/05/12 00:51:47;;;;;;;4.70;2.88;;;13.60;99.90;;;;;;5095803;28;20111;-82
2022/05/12 00:54:30;;;;;;;4.03;2.33;;;13.60;99.90;;;;;;5093971;28;20496;-82
2022/05/12 00:56:58;;;;;;;3.38;2.30;;;13.60;99.90;;;;;;5082603;28;20086;-82
2022/05/12 00:59:32;;;;;;;4.07;2.45;;;13.60;99.90;;;;;;5100193;28;20093;-82
2022/05/12 01:02:00;;;;;;;4.93;3.03;;;13.60;99.90;;;;;;5079866;28;20112;-82
2022/05/12 01:04:28;;;;;;;4.88;2.42;;;13.60;99.90;;;;;;5095085;28;20027;-82
2022/05/12 01:06:54;;;;;;;5.03;3.00;;;13.60;99.90;;;;;;5099753;28;20042;-82
2022/05/12 01:09:20;;;;;;;5.25;3.00;;;13.60;99.90;;;;;;5100109;28;20024;-82
2022/05/12 01:11:48;;;;;;;4.38;2.70;;;13.50;99.90;;;;;;5081369;28;20039;-82
2022/05/12 01:14:15;;;;;;;6.10;2.78;;;13.40;99.90;;;;;;5095937;28;20032;-82
2022/05/12 01:16:47;;;;;;;4.45;2.90;;;13.40;99.90;;;;;;5082211;28;20507;-82
2022/05/12 01:19:22;;;;;;;6.10;2.92;;;13.30;99.90;;;;;;5097075;28;20093;-82
2022/05/12 01:21:50;;;;;;;5.25;3.00;;;13.30;99.90;;;;;;5100265;28;20035;-82
2022/05/12 01:24:17;;;;;;;3.50;2.70;;;13.20;99.90;;;;;;5081729;28;20028;-82
2022/05/12 01:26:43;;;;;;;4.18;2.75;;;13.20;99.90;;;;;;5082001;28;20048;-82
2022/05/12 01:29:09;;;;;;;5.80;2.80;;;13.20;99.90;;;;;;5097174;28;20533;-82
2022/05/12 01:31:36;;;;;;;5.35;2.50;;;13.20;99.90;;;;;;5088431;28;20028;-82
2022/05/12 01:34:04;;;;;;;4.22;2.50;;;13.20;99.90;;;;;;5077728;28;20067;-82
2022/05/12 01:36:30;;;;;;;5.30;2.50;;;13.20;99.90;;;;;;5096482;28;20020;-82
2022/05/12 01:38:56;;;;;;;4.78;2.60;;;13.10;99.90;;;;;;5078704;28;20034;-82
2022/05/12 01:41:22;;;;;;;4.70;2.83;;;13.00;99.90;;;;;;5096986;28;20042;-82
2022/05/12 01:43:48;;;;;;;7.68;2.70;;;13.00;99.90;;;;;;5061240;28;20036;-82
2022/05/12 01:46:14;;;;;;;3.15;2.50;;;13.00;99.90;;;;;;5096016;28;20032;-83
2022/05/12 01:48:40;;;;;;;4.15;2.72;;;13.00;99.90;;;;;;5059037;28;20072;-82
2022/05/12 01:51:08;;;;;;;4.95;2.70;;;13.00;99.90;;;;;;5095612;28;20026;-84
2022/05/12 01:53:34;;;;;;;4.55;2.55;;;13.00;99.90;;;;;;5072064;28;20073;-82
2022/05/12 01:56:04;;;;;;;4.40;2.85;;;13.00;99.90;;;;;;5086302;28;20047;-82
2022/05/12 01:58:30;;;;;;;5.83;3.33;;;13.00;99.90;;;;;;5078004;28;20472;-82
2022/05/12 02:00:55;;;;;;;5.55;3.30;;;13.00;99.90;;;;;;5074037;28;20055;-83
2022/05/12 02:03:21;;;;;;;5.82;3.45;;;13.00;99.90;;;;;;5090430;28;20032;-82
2022/05/12 02:05:47;;;;;;;4.72;3.17;;;13.00;99.90;;;;;;5095675;28;20479;-82
2022/05/12 02:08:15;;;;;;;5.68;3.67;;;13.00;99.90;;;;;;5081843;28;20039;-82
2022/05/12 02:10:45;;;;;;;5.80;3.88;;;13.00;99.90;;;;;;5066190;28;20103;-82
2022/05/12 02:13:12;;;;;;;7.53;4.20;;;12.90;99.90;;;;;;5078268;28;20031;-83
2022/05/12 02:15:39;;;;;;;7.18;4.90;;;12.90;99.90;;;;;;5095688;28;20024;-82
2022/05/12 02:18:05;;;;;;;5.32;4.82;;;12.90;99.90;;;;;;5088096;28;20073;-82
2022/05/12 02:20:32;;;;;;;5.78;4.13;;;12.90;99.90;;;;;;5082602;28;20569;-82
2022/05/12 02:22:57;;;;;;;4.60;3.30;;;12.90;99.90;;;;;;5095559;28;20093;-82
2022/05/12 02:25:23;;;;;;;5.57;3.25;;;12.90;99.90;;;;;;5077918;28;20024;-82
2022/05/12 02:27:51;;;;;;;3.40;2.50;;;12.80;99.90;;;;;;5077369;28;20031;-82
2022/05/12 02:30:28;;;;;;;8.73;2.88;;;12.70;99.90;;;;;;5095098;28;20028;-82
2022/05/12 02:32:54;;;;;;;5.03;3.28;;;12.50;99.90;;;;;;5094710;28;20042;-84
2022/05/12 02:35:20;;;;;;;6.70;3.40;;;12.20;99.90;;;;;;5057351;28;20506;-81
2022/05/12 02:37:46;;;;;;;5.43;2.95;;;12.00;99.90;;;;;;5091749;28;20032;-81
2022/05/12 02:40:14;;;;;;;8.52;3.85;;;11.90;99.90;;;;;;5094727;28;20028;-82
2022/05/12 02:42:40;;;;;;;5.57;3.17;;;11.80;99.90;;;;;;5074295;28;20077;-82
2022/05/12 02:45:07;;;;;;;3.78;3.00;;;11.80;99.90;;;;;;5092115;28;20410;-82
2022/05/12 02:47:33;;;;;;;4.53;3.13;;;11.80;99.90;;;;;;5095005;28;20020;-82
2022/05/12 02:49:59;;;;;;;4.88;2.88;;;11.80;99.90;;;;;;5094834;28;20024;-81
2022/05/12 02:52:25;;;;;;;4.38;2.78;;;11.80;99.90;;;;;;5094669;28;20023;-82
2022/05/12 02:54:50;;;;;;;4.68;2.88;;;11.80;99.90;;;;;;5095262;28;20028;-82
2022/05/12 02:57:16;;;;;;;7.60;3.13;;;11.80;99.90;;;;;;5075157;28;20495;-82
2022/05/12 02:59:42;;;;;;;4.95;3.13;;;11.80;99.90;;;;;;5090280;28;20499;-82
2022/05/12 03:02:07;;;;;;;4.88;3.10;;;11.80;99.90;;;;;;5071917;28;20115;-83
2022/05/12 03:04:33;;;;;;;4.43;2.90;;;11.90;99.90;;;;;;5074920;28;20046;-82
2022/05/12 03:06:59;;;;;;;5.63;2.83;;;11.90;99.90;;;;;;5077049;28;20024;-82
2022/05/12 03:09:25;;;;;;;6.82;3.78;;;11.80;99.90;;;;;;5090531;28;20032;-82
2022/05/12 03:11:51;;;;;;;4.75;3.40;;;11.70;99.90;;;;;;5074907;28;20495;-82
2022/05/12 03:14:17;;;;;;;4.88;3.22;;;11.60;99.90;;;;;;5077427;28;20020;-82
2022/05/12 03:16:43;;;;;;;4.88;2.92;;;11.60;99.90;;;;;;5077141;28;20027;-82
2022/05/12 03:19:10;;;;;;;6.10;3.83;;;11.60;99.90;;;;;;5094601;28;20055;-82
2022/05/12 03:21:36;;;;;;;5.05;3.15;;;11.60;99.90;;;;;;5094264;28;20020;-82
2022/05/12 03:24:04;;;;;;;4.78;3.20;;;11.60;99.90;;;;;;5094654;28;20043;-82
2022/05/12 03:26:30;;;;;;;5.80;2.80;;;11.60;99.90;;;;;;5076549;28;20563;-82
2022/05/12 03:28:55;;;;;;;7.07;2.97;;;11.60;99.90;;;;;;5094843;28;20027;-82
2022/05/12 03:31:21;;;;;;;5.53;2.90;;;11.60;99.90;;;;;;5093917;28;20024;-82
2022/05/12 03:33:47;;;;;;;5.35;3.20;;;11.70;99.90;;;;;;5095031;28;20020;-82
2022/05/12 03:36:15;;;;;;;6.93;3.50;;;11.70;99.90;;;;;;5095068;28;20491;-82
2022/05/12 03:38:41;;;;;;;4.05;2.95;;;11.70;99.90;;;;;;5096446;28;20012;-81
2022/05/12 03:41:06;;;;;;;4.25;3.45;;;11.70;99.90;;;;;;5077455;28;20016;-82
2022/05/12 03:46:17;;;;;;;4.32;2.97;;;11.60;99.90;;;;;;5088966;28;20101;-81
2022/05/12 03:48:43;;;;;;;3.95;3.08;;;11.60;99.90;;;;;;5093965;28;20524;-82
2022/05/12 03:51:09;;;;;;;6.45;3.17;;;11.60;99.90;;;;;;5094155;28;20077;-82
2022/05/12 03:53:36;;;;;;;4.28;3.10;;;11.60;99.90;;;;;;5075535;28;20081;-82
2022/05/12 03:56:04;;;;;;;5.43;3.17;;;11.60;99.90;;;;;;5093286;28;20127;-81
2022/05/12 03:58:31;;;;;;;4.95;2.90;;;11.60;99.90;;;;;;5093774;28;20024;-81
2022/05/12 04:00:58;;;;;;;5.80;3.17;;;11.60;99.90;;;;;;5093902;28;20023;-81
2022/05/12 04:03:23;;;;;;;4.88;3.05;;;11.70;99.90;;;;;;5074873;28;20027;-81
2022/05/12 04:05:49;;;;;;;6.53;3.40;;;11.70;99.90;;;;;;5093639;28;20036;-81
2022/05/12 04:08:15;;;;;;;5.75;3.75;;;11.70;99.90;;;;;;5093381;28;20035;-81
2022/05/12 04:10:41;;;;;;;9.07;3.65;;;11.70;99.90;;;;;;5075880;28;20028;-82
2022/05/12 04:13:07;;;;;;;4.45;3.50;;;11.70;99.90;;;;;;5092644;28;20070;-82
2022/05/12 04:15:32;;;;;;;5.00;3.55;;;11.60;99.90;;;;;;5078378;28;20017;-82
2022/05/12 04:18:05;;;;;;;6.95;3.75;;;11.60;99.90;;;;;;5068055;28;20027;-82
2022/05/12 04:20:32;;;;;;;6.28;3.47;;;11.50;99.90;;;;;;5094723;28;20028;-82
2022/05/12 04:22:58;;;;;;;7.78;3.65;;;11.40;99.90;;;;;;5094150;28;20035;-82
2022/05/12 04:25:25;;;;;;;6.30;3.67;;;11.40;99.90;;;;;;5076111;28;20020;-82
2022/05/12 04:27:52;;;;;;;7.03;3.15;;;11.30;99.90;;;;;;5076005;28;20024;-82
2022/05/12 04:30:21;;;;;;;6.57;3.30;;;11.30;99.90;;;;;;5075515;28;20020;-82
2022/05/12 04:32:46;;;;;;;5.10;3.58;;;11.40;99.90;;;;;;5093471;28;20414;-82
2022/05/12 04:35:14;;;;;;;11.65;4.10;;;11.40;99.90;;;;;;5093965;28;20115;-82
2022/05/12 04:37:52;;;;;;;6.90;4.13;;;11.50;99.90;;;;;;5094407;28;20024;-82
2022/05/12 04:40:26;;;;;;;5.68;3.97;;;11.40;99.90;;;;;;5093600;28;20023;-83
2022/05/12 04:42:54;;;;;;;5.85;3.67;;;11.40;99.90;;;;;;5075580;28;20547;-82
2022/05/12 04:45:22;;;;;;;8.80;3.70;;;11.40;99.90;;;;;;5093435;28;20081;-82
2022/05/12 04:47:49;;;;;;;9.05;3.97;;;11.50;99.90;;;;;;5075357;28;20059;-82
2022/05/12 04:50:22;;;;;;;5.85;3.50;;;11.50;99.90;;;;;;5075433;28;20028;-82
2022/05/12 04:52:48;;;;;;;7.25;4.07;;;11.50;99.90;;;;;;5093374;28;20093;-82
2022/05/12 04:55:15;;;;;;;7.65;4.30;;;11.40;99.90;;;;;;5093458;28;20027;-82
2022/05/12 04:57:43;;;;;;;6.75;3.83;;;11.40;99.90;;;;;;5093619;28;20100;-82
2022/05/12 05:00:13;;;;;;;4.55;3.63;;;11.40;99.90;;;;;;5093455;28;20020;-82
2022/05/12 05:02:40;;;;;;;6.25;3.90;;;11.40;99.90;;;;;;5093584;28;20024;-82
2022/05/12 05:05:06;;;;;;;7.40;4.38;;;11.40;99.90;;;;;;5096399;28;20028;-82
2022/05/12 05:07:33;;;;;;;8.25;4.38;;;11.40;99.90;;;;;;5097423;28;20070;-82
2022/05/12 05:09:58;;;;;;;7.70;4.70;;;11.40;99.90;;;;;;5097657;28;20098;-82
2022/05/12 05:12:25;;;;;;;7.28;4.65;;;11.50;99.90;;;;;;5096868;28;20027;-82
2022/05/12 05:14:51;;;;;;;7.07;4.68;;;11.50;99.90;;;;;;5078752;28;20471;-82
2022/05/12 05:17:17;;;;;;;9.48;5.07;;;11.50;99.90;;;;;;5078840;28;20430;-82
2022/05/12 05:19:42;;;;;;;7.75;4.25;;;11.40;99.90;;;;;;5097007;28;20024;-82
2022/05/12 05:22:08;;;;;;;13.95;5.30;;;11.50;99.90;;;;;;5074168;28;20025;-82
2022/05/12 05:24:34;;;;;;;6.43;4.95;;;11.50;99.90;;;;;;5076622;28;20069;-82
2022/05/12 05:27:00;;;;;;;8.70;4.70;;;11.50;99.90;;;;;;5058799;28;20020;-82
2022/05/12 05:29:26;;;;;;;9.40;4.90;;;11.60;99.90;;;;;;5076666;28;20078;-82
2022/05/12 05:31:52;;;;;;;8.25;4.85;;;11.70;99.90;;;;;;5077947;28;20032;-82
2022/05/12 05:34:18;;;;;;;6.30;4.68;;;11.70;99.90;;;;;;5077257;28;20032;-82
2022/05/12 05:36:44;;;;;;;8.43;4.47;;;11.80;99.90;;;;;;5077661;28;20028;-82
2022/05/12 05:39:22;;;;;;;8.43;5.07;;;11.80;99.90;;;;;;5060157;28;20045;-82
2022/05/12 05:41:49;;;;;;;8.38;5.13;;;12.00;99.90;;;;;;5075572;28;20387;-82
2022/05/12 05:44:15;;;;;;;8.27;4.63;;;12.00;99.90;;;;;;5076784;28;20063;-82
2022/05/12 05:46:41;;;;;;;7.50;4.88;;;12.10;99.90;;;;;;5076399;28;20056;-82
2022/05/12 05:49:06;;;;;;;12.93;5.80;;;12.20;99.90;;;;;;5058564;28;20099;-82
2022/05/12 05:54:16;;;;;;;7.60;5.15;;;12.30;99.90;;;;;;5076364;28;20031;-82
2022/05/12 05:56:43;;;;;;;8.25;5.75;;;12.40;99.90;;;;;;5074674;28;20115;-84
2022/05/12 05:59:09;;;;;;;7.32;5.00;;;12.50;99.90;;;;;;5088034;28;20380;-81
2022/05/12 06:01:34;;;;;;;7.80;5.30;;;12.60;99.90;;;;;;5096432;28;20020;-81
2022/05/12 06:04:00;;;;;;;10.43;5.15;;;12.70;99.90;;;;;;5095903;28;20028;-82
2022/05/12 06:06:26;;;;;;;8.13;5.13;;;12.80;99.90;;;;;;5095948;28;20464;-81
2022/05/12 06:08:52;;;;;;;6.78;4.65;;;12.80;99.90;;;;;;5095990;28;20024;-81
2022/05/12 06:11:18;;;;;;;8.90;5.40;;;13.00;99.90;;;;;;5096362;28;20020;-81
2022/05/12 06:13:44;;;;;;;6.90;4.45;;;13.10;99.90;;;;;;5095937;28;20028;-81
2022/05/12 06:16:10;;;;;;;12.23;5.80;;;13.20;99.90;;;;;;5077050;28;20111;-81
2022/05/12 06:18:37;;;;;;;7.05;4.95;;;13.20;99.90;;;;;;5095901;28;20105;-81
2022/05/12 06:21:04;;;;;;;11.10;5.25;;;13.30;99.90;;;;;;5095583;28;20111;-81
2022/05/12 06:23:30;;;;;;;7.35;5.00;;;13.40;99.90;;;;;;5095487;28;20031;-81
2022/05/12 06:25:57;;;;;;;9.75;5.10;;;13.50;99.90;;;;;;5095787;28;20028;-81
2022/05/12 06:28:23;;;;;;;9.68;5.38;;;13.60;99.90;;;;;;5077171;28;20046;-81
2022/05/12 06:30:49;;;;;;;11.13;5.82;;;13.80;99.90;;;;;;5095347;28;20450;-81
2022/05/12 06:33:17;;;;;;;8.50;5.70;;;14.00;99.90;;;;;;5095251;28;20027;-81
2022/05/12 06:35:43;;;;;;;11.88;6.50;;;14.10;99.90;;;;;;5095315;28;20506;-81
2022/05/12 06:38:10;;;;;;;28.88;12.63;;;14.30;99.90;;;;;;5094965;28;20020;-82
2022/05/12 06:40:36;;;;;;;31.15;14.43;;;14.40;99.90;;;;;;5095138;28;20012;-82
2022/05/12 06:43:07;;;;;;;22.15;10.98;;;14.60;99.90;;;;;;5076806;28;20070;-82
2022/05/12 06:45:33;;;;;;;14.23;8.77;;;14.70;99.90;;;;;;5095041;28;20032;-82
2022/05/12 06:47:59;;;;;;;14.60;8.27;;;14.90;99.90;;;;;;5095386;28;20039;-81
2022/05/12 06:50:28;;;;;;;11.95;7.65;;;15.00;99.90;;;;;;5094938;28;20066;-82
2022/05/12 06:52:54;;;;;;;12.48;7.35;;;15.20;99.90;;;;;;5094876;28;20099;-82
2022/05/12 06:55:21;;;;;;;12.40;7.93;;;15.30;99.90;;;;;;5095115;28;20026;-81
2022/05/12 06:57:48;;;;;;;10.73;7.15;;;15.40;99.90;;;;;;5077209;28;20434;-82
2022/05/12 07:00:16;;;;;;;15.15;7.95;;;15.50;99.90;;;;;;5095010;28;20021;-82
2022/05/12 07:02:44;;;;;;;13.95;8.18;;;15.70;99.90;;;;;;5094934;28;20048;-82
2022/05/12 07:05:11;;;;;;;12.18;9.52;;;15.80;99.90;;;;;;5094597;28;20529;-81
2022/05/12 07:07:37;;;;;;;12.60;9.30;;;16.00;99.90;;;;;;5094631;28;20024;-82
2022/05/12 07:10:05;;;;;;;13.95;10.38;;;16.10;99.90;;;;;;5094665;28;20024;-82
2022/05/12 07:12:30;;;;;;;24.20;17.73;;;16.30;99.90;;;;;;5095296;28;20056;-82
2022/05/12 07:14:58;;;;;;;21.20;15.98;;;16.40;99.90;;;;;;5076266;28;20105;-82
2022/05/12 07:17:24;;;;;;;19.13;15.23;;;16.50;99.90;;;;;;5095185;28;20024;-82
2022/05/12 07:19:50;;;;;;;29.15;18.30;;;16.70;99.90;;;;;;5093922;28;20460;-82
2022/05/12 07:27:44;;;;;;;18.65;12.85;;;17.30;99.80;;;;;;5094088;28;20158;-82
2022/05/12 07:30:11;;;;;;;16.65;12.25;;;17.50;99.50;;;;;;5076272;28;20054;-82
2022/05/12 07:32:37;;;;;;;15.18;11.30;;;17.60;99.90;;;;;;5094170;28;20028;-82
2022/05/12 07:35:07;;;;;;;11.13;9.18;;;17.80;99.50;;;;;;5075974;28;20023;-82
2022/05/12 07:37:33;;;;;;;12.68;8.20;;;18.00;98.60;;;;;;5076191;28;20016;-82
2022/05/12 07:39:59;;;;;;;9.15;6.40;;;18.20;96.50;;;;;;5094197;28;20069;-82
2022/05/12 07:42:25;;;;;;;7.70;5.78;;;18.30;95.90;;;;;;5094609;28;20371;-82
2022/05/12 07:44:50;;;;;;;8.18;6.25;;;18.50;96.20;;;;;;5093729;28;20024;-82
2022/05/12 07:47:16;;;;;;;9.98;6.25;;;18.70;95.60;;;;;;5075887;28;20133;-82
2022/05/12 07:49:42;;;;;;;6.82;5.50;;;18.90;95.70;;;;;;5069560;28;20051;-82
2022/05/12 07:52:10;;;;;;;9.75;5.03;;;19.10;96.20;;;;;;5073890;28;20100;-82
2022/05/12 07:54:37;;;;;;;9.10;5.88;;;19.30;94.90;;;;;;5073506;28;20391;-83
2022/05/12 07:57:03;;;;;;;7.45;5.22;;;19.50;95.50;;;;;;5073977;28;20365;-81
2022/05/12 07:59:31;;;;;;;5.82;4.78;;;19.50;94.50;;;;;;5074188;28;20021;-81
2022/05/12 08:01:58;;;;;;;6.38;5.38;;;19.70;94.30;;;;;;5073663;28;20100;-81
2022/05/12 08:04:27;;;;;;;9.13;5.75;;;19.70;94.20;;;;;;5055849;28;20501;-81
2022/05/12 08:06:54;;;;;;;7.38;5.63;;;19.80;94.50;;;;;;5073797;28;20125;-81
2022/05/12 08:09:20;;;;;;;10.50;5.40;;;19.80;93.60;;;;;;5073751;28;20020;-81
2022/05/12 08:11:46;;;;;;;8.35;5.47;;;19.90;94.20;;;;;;5073525;28;20057;-81
2022/05/12 08:14:12;;;;;;;11.05;5.43;;;20.00;93.70;;;;;;5083030;28;20539;-81
2022/05/12 08:16:38;;;;;;;7.93;5.18;;;20.10;93.50;;;;;;5075982;28;20024;-81
2022/05/12 08:19:04;;;;;;;6.35;5.13;;;20.10;92.70;;;;;;5093763;28;20024;-81
2022/05/12 08:21:30;;;;;;;11.50;5.68;;;20.10;93.80;;;;;;5075562;28;20024;-81
2022/05/12 08:23:56;;;;;;;7.25;5.40;;;20.10;93.30;;;;;;5075619;28;20073;-81
2022/05/12 08:26:22;;;;;;;8.48;5.18;;;20.20;92.10;;;;;;5093548;28;20373;-81
2022/05/12 08:28:50;;;;;;;10.73;5.25;;;20.20;91.90;;;;;;5093855;28;20437;-81
2022/05/12 08:31:17;;;;;;;11.98;5.80;;;20.30;91.80;;;;;;5093922;28;20027;-81
2022/05/12 08:33:42;;;;;;;11.43;5.47;;;20.40;91.80;;;;;;5093036;28;20024;-81
2022/05/12 08:36:10;;;;;;;10.70;5.90;;;20.60;90.90;;;;;;5093514;28;20020;-81
2022/05/12 08:38:40;;;;;;;6.28;4.72;;;20.90;91.10;;;;;;5095672;28;20070;-81
2022/05/12 08:41:09;;;;;;;7.60;4.97;;;21.10;89.70;;;;;;5098021;28;20020;-83
2022/05/12 08:43:40;;;;;;;8.45;5.78;;;21.40;88.00;;;;;;5079717;28;20036;-81
2022/05/12 08:46:14;;;;;;;13.45;5.57;;;21.60;86.70;;;;;;5097813;28;20036;-81
2022/05/12 08:48:43;;;;;;;9.07;5.07;;;21.90;85.10;;;;;;5079584;28;20387;-81
2022/05/12 08:51:12;;;;;;;6.88;3.97;;;22.10;85.20;;;;;;5097320;28;20495;-82
2022/05/12 08:54:00;;;;;;;7.60;4.75;;;22.30;81.10;;;;;;5089543;28;20024;-79
2022/05/12 08:56:26;;;;;;;8.05;4.15;;;22.40;81.50;;;;;;5059172;28;20070;-79
2022/05/12 08:58:55;;;;;;;9.98;3.78;;;22.60;81.40;;;;;;5059165;28;20025;-79
2022/05/12 09:01:58;;;;;;;8.13;3.58;;;22.70;76.70;;;;;;5077179;28;20025;-79
2022/05/12 09:04:53;;;;;;;7.80;4.03;;;22.90;75.70;;;;;;5084989;28;20365;-79
2022/05/12 09:07:28;;;;;;;7.40;3.42;;;23.00;77.50;;;;;;5097873;28;20024;-79
2022/05/12 09:10:10;;;;;;;8.10;3.47;;;23.10;73.00;;;;;;5097909;28;20597;-79
2022/05/12 09:13:40;;;;;;;5.95;3.63;;;23.30;73.10;;;;;;5097226;28;20390;-81
2022/05/12 09:16:25;;;;;;;5.38;3.88;;;23.40;73.10;;;;;;5038545;28;20368;-81
2022/05/12 09:18:53;;;;;;;5.82;3.40;;;23.60;73.50;;;;;;5094052;28;20040;-81
2022/05/12 09:21:35;;;;;;;5.75;3.30;;;23.70;70.30;;;;;;5078693;28;20046;-82
2022/05/12 09:24:03;;;;;;;4.82;2.92;;;23.80;68.10;;;;;;5096390;28;20020;-82
2022/05/12 09:26:37;;;;;;;7.55;3.90;;;23.90;66.90;;;;;;5097350;28;20364;-82
2022/05/12 09:29:25;;;;;;;6.25;4.07;;;24.00;67.40;;;;;;5079285;28;20059;-82
2022/05/12 09:32:03;;;;;;;8.20;3.20;;;24.20;66.80;;;;;;5078233;28;20026;-82
2022/05/12 09:34:31;;;;;;;4.93;3.65;;;24.30;66.10;;;;;;5078736;28;20024;-82
2022/05/12 09:37:13;;;;;;;4.68;3.03;;;24.50;65.00;;;;;;5079063;28;20040;-82
2022/05/12 09:39:41;;;;;;;6.10;3.58;;;24.60;64.10;;;;;;5078484;28;20042;-82
2022/05/12 09:42:15;;;;;;;7.63;3.13;;;24.80;61.40;;;;;;5096759;28;20020;-82
2022/05/12 09:44:53;;;;;;;4.82;3.13;;;24.80;62.80;;;;;;5078915;28;20447;-81
2022/05/12 09:47:18;;;;;;;6.60;3.38;;;25.00;61.60;;;;;;5096755;28;20111;-81
2022/05/12 09:49:46;;;;;;;5.32;2.70;;;25.20;61.80;;;;;;5095993;28;20518;-81
2022/05/12 09:52:35;;;;;;;7.63;3.22;;;25.20;62.50;;;;;;5078331;28;20027;-82
2022/05/12 09:55:20;;;;;;;6.15;3.08;;;25.30;62.40;;;;;;5097212;28;20047;-82
2022/05/12 09:57:59;;;;;;;3.90;3.22;;;25.50;62.80;;;;;;5096605;28;20031;-82
2022/05/12 10:00:34;;;;;;;4.40;3.17;;;25.70;60.50;;;;;;5078180;28;20476;-81
2022/05/12 10:09:10;;;;;;;4.68;3.17;;;26.00;59.20;;;;;;5096404;28;20023;-82
2022/05/12 10:11:57;;;;;;;7.30;3.25;;;26.00;57.80;;;;;;5096269;28;20027;-82
2022/05/12 10:14:32;;;;;;;5.90;3.22;;;26.00;60.20;;;;;;5102612;22;20047;-70
2022/05/12 10:16:59;;;;;;;6.78;3.20;;;26.00;58.30;;;;;;5086382;28;20016;-70
2022/05/12 10:19:29;;;;;;;3.85;3.00;;;26.00;56.00;;;;;;5075600;28;20108;-70
2022/05/12 10:22:37;;;;;;;5.93;3.50;;;26.00;59.60;;;;;;5074999;28;20024;-70
2022/05/12 10:25:08;;;;;;;6.10;3.10;;;26.20;57.50;;;;;;5049981;28;20564;-70
2022/05/12 10:27:43;;;;;;;4.47;3.03;;;26.20;58.00;;;;;;5075075;28;20036;-70
2022/05/12 10:30:14;;;;;;;5.70;3.22;;;26.40;57.70;;;;;;5090987;28;20031;-70
2022/05/12 10:33:11;;;;;;;5.00;2.88;;;26.40;57.10;;;;;;5095170;28;20024;-69
2022/05/12 10:36:01;;;;;;;7.88;3.22;;;26.50;56.60;;;;;;5076980;28;20027;-70
2022/05/12 10:38:58;;;;;;;10.52;3.00;;;26.50;57.60;;;;;;5095371;28;20426;-69
2022/05/12 10:41:35;;;;;;;5.18;3.38;;;26.40;57.60;;;;;;5095160;28;20032;-69
2022/05/12 10:44:32;;;;;;;5.03;2.90;;;26.40;56.90;;;;;;5094978;28;20036;-70
2022/05/12 10:47:15;;;;;;;5.90;2.95;;;26.50;58.90;;;;;;5095045;28;20032;-71
2022/05/12 10:50:01;;;;;;;6.38;2.90;;;26.60;56.30;;;;;;5094804;28;20028;-70
2022/05/12 10:52:32;;;;;;;7.35;3.08;;;26.70;55.90;;;;;;5094313;28;20020;-70
2022/05/12 10:55:30;;;;;;;3.92;2.95;;;26.90;56.10;;;;;;5095310;28;20016;-70
2022/05/12 10:58:19;;;;;;;3.88;2.90;;;27.00;55.90;;;;;;5088882;28;20043;-70
2022/05/12 11:00:55;;;;;;;4.90;2.90;;;27.00;55.40;;;;;;5093708;28;20023;-70
2022/05/12 11:03:30;;;;;;;5.28;3.30;;;27.10;57.60;;;;;;5093762;28;20059;-70
2022/05/12 11:05:59;;;;;;;9.35;3.28;;;27.10;55.00;;;;;;5076533;28;20024;-70
2022/05/12 11:09:11;;;;;;;3.85;3.05;;;27.20;56.00;;;;;;5094600;28;20032;-71
2022/05/12 11:11:41;;;;;;;5.28;3.08;;;27.20;53.50;;;;;;5017267;28;20054;-69
2022/05/12 11:14:11;;;;;;;6.28;2.70;;;27.30;54.40;;;;;;5012785;28;20105;-71
2022/05/12 11:16:50;;;;;;;4.22;3.25;;;27.40;52.20;;;;;;5057821;28;20263;-70
2022/05/12 11:19:22;;;;;;;5.85;3.08;;;27.50;53.30;;;;;;5085362;28;20083;-70
2022/05/12 11:22:07;;;;;;;6.35;2.67;;;27.60;54.00;;;;;;5078193;28;20411;-70
2022/05/12 11:24:39;;;;;;;6.70;2.75;;;27.80;53.80;;;;;;5109429;28;20031;-70
2022/05/12 11:27:28;;;;;;;5.10;3.08;;;27.80;54.90;;;;;;5061906;28;20016;-70
2022/05/12 11:30:07;;;;;;;4.53;2.70;;;27.80;53.00;;;;;;5061161;28;20040;-70
2022/05/12 11:32:50;;;;;;;5.15;3.10;;;27.80;54.10;;;;;;5092127;28;20028;-70
2022/05/12 11:35:23;;;;;;;6.97;3.17;;;27.90;54.40;;;;;;5094595;28;20020;-70
2022/05/12 11:37:50;;;;;;;8.07;3.30;;;27.90;52.80;;;;;;5094333;28;20376;-70
2022/05/12 11:40:44;;;;;;;7.70;3.45;;;27.90;54.10;;;;;;5093974;28;20043;-70
2022/05/12 11:46:19;;;;;;;4.82;3.03;;;27.90;52.20;;;;;;5073729;28;20097;-75
2022/05/12 11:48:57;;;;;;;4.25;2.75;;;28.00;53.20;;;;;;5077038;28;20062;-70
2022/05/12 11:51:52;;;;;;;5.25;2.63;;;28.20;53.00;;;;;;5075881;28;20084;-69
2022/05/12 11:54:35;;;;;;;4.57;2.78;;;28.10;52.10;;;;;;5094227;28;20024;-69
2022/05/12 11:57:04;;;;;;;6.47;2.88;;;27.90;52.80;;;;;;5095052;28;20031;-69
2022/05/12 11:59:33;;;;;;;5.07;3.05;;;27.80;52.60;;;;;;5075768;28;20044;-69
2022/05/12 12:02:26;;;;;;;4.05;2.78;;;27.80;53.10;;;;;;5093715;28;20012;-69
2022/05/12 12:04:52;;;;;;;6.03;3.00;;;27.80;52.40;;;;;;5093619;28;20020;-69
2022/05/12 12:07:21;;;;;;;5.70;3.28;;;27.70;52.60;;;;;;5093825;28;20016;-70
2022/05/12 12:09:51;;;;;;;4.43;2.75;;;27.90;54.20;;;;;;5093616;28;20095;-69
2022/05/12 12:12:45;;;;;;;7.03;2.50;;;27.90;51.30;;;;;;5093569;28;20494;-70
2022/05/12 12:15:33;;;;;;;5.13;2.58;;;27.90;51.30;;;;;;5078412;28;20611;-69
2022/05/12 12:18:28;;;;;;;4.07;2.85;;;27.80;53.00;;;;;;5014591;28;20471;-70
2022/05/12 12:20:58;;;;;;;3.85;2.72;;;27.50;51.70;;;;;;5069799;28;20060;-70
2022/05/12 12:23:23;;;;;;;3.47;2.60;;;27.40;52.30;;;;;;5073757;28;20024;-69
2022/05/12 12:26:06;;;;;;;6.15;2.53;;;27.50;51.60;;;;;;5073627;28;20487;-69
2022/05/12 12:29:15;;;;;;;4.20;2.42;;;27.50;51.50;;;;;;5073521;28;20024;-70
2022/05/12 12:31:48;;;;;;;2.92;2.20;;;27.30;51.50;;;;;;5071700;28;20082;-69
2022/05/12 12:34:21;;;;;;;6.30;2.63;;;27.00;50.30;;;;;;5073220;28;20024;-70
2022/05/12 12:36:50;;;;;;;4.63;2.80;;;26.80;52.20;;;;;;5073211;28;20375;-70
2022/05/12 12:39:37;;;;;;;6.53;3.05;;;26.80;52.80;;;;;;5072912;28;20082;-69
2022/05/12 12:42:09;;;;;;;4.95;2.50;;;26.70;51.50;;;;;;5073008;28;20096;-69
2022/05/12 12:44:42;;;;;;;4.35;2.50;;;26.60;51.90;;;;;;5083040;28;20058;-69
2022/05/12 12:47:26;;;;;;;4.13;2.45;;;26.70;50.40;;;;;;5093373;28;20052;-69
2022/05/12 12:50:20;;;;;;;6.05;2.80;;;26.80;51.70;;;;;;5093318;28;20028;-69
2022/05/12 12:52:50;;;;;;;6.95;2.47;;;27.00;53.60;;;;;;5093180;28;20027;-70
2022/05/12 12:58:43;;;;;;;7.88;2.70;;;27.00;50.30;;;;;;5093164;28;20498;-69
2022/05/12 13:01:23;;;;;;;5.55;2.65;;;26.80;51.30;;;;;;5092966;28;20095;-70
2022/05/12 13:03:57;;;;;;;3.53;2.40;;;26.60;52.50;;;;;;5093023;28;20076;-69
2022/05/12 13:06:29;;;;;;;8.73;3.15;;;26.50;51.50;;;;;;5093262;28;20028;-69
2022/05/12 13:09:00;;;;;;;8.18;2.78;;;26.40;50.50;;;;;;5093302;28;20031;-69
2022/05/12 13:11:26;;;;;;;4.78;2.88;;;26.20;52.10;;;;;;5092819;28;20032;-69
2022/05/12 13:13:54;;;;;;;6.05;2.72;;;26.10;51.80;;;;;;5092824;28;20039;-69
2022/05/12 13:16:30;;;;;;;5.28;2.40;;;26.10;54.50;;;;;;5092757;28;20024;-69
2022/05/12 13:18:56;;;;;;;4.80;2.75;;;26.20;54.10;;;;;;5093222;28;20019;-69
2022/05/12 13:21:22;;;;;;;3.92;2.50;;;26.40;54.90;;;;;;5093005;28;20490;-69
2022/05/12 13:24:05;;;;;;;4.93;2.80;;;26.50;53.30;;;;;;5093184;28;20028;-69
2022/05/12 13:26:33;;;;;;;6.00;2.90;;;26.60;51.50;;;;;;5096258;28;20024;-69